Airfield :
LOGIN :

Register | Disclaimer

   EN    FR    IT 

 










Legend :    VFR   Marginal VFR   IFR   Intensive IFR   Very Intensive IFR
Visi :
Ceiling :
>= 8 km
>= 3000ft
5 to 8 km
1000 to 3000 ft
1500m to 5 km
500 to 1000 ft
800 to 1500m
200 to 500 ft
< 800m
< 200 ft
Symbols :   Thunderstorms  Fog  Heavy snow  Heavy precipitations  Wind > 20 kt
SIGMETs :     Misc.  Thunderstorms  Icing  Turbulence  Mountain Waves  Volcanic Ashes






- Airport Elevation : 1416 ft
- IATA code : ZRH


LSZH - Zurich

CURRENT METAR :
  • 161120Z 07010KT 040V110 9999 FEW045 08/M03 Q1021 NOSIG

EXPIRED METARs :
  • 161050Z 05011KT 020V100 9999 FEW045 07/M05 Q1021 NOSIG
  • 161020Z 05013KT 010V090 9999 FEW040 06/M04 Q1021 NOSIG
  • 160950Z 08011KT 040V110 9999 FEW040 07/M03 Q1021 NOSIG
  • 160920Z 05011KT 020V080 9999 FEW035 05/M04 Q1022 NOSIG
  • 160850Z 06011KT 020V090 9999 FEW035 05/M04 Q1022 NOSIG

TAF TAF LSZH
Valid from the 16 at 12:00 until the 17 at 18:00 UTC


161125Z 1612/1718 05012KT 9999 FEW050 TX10/1615Z TNM01/1704Z TX09/1715Z
PROB40
TEMPO 1612/1616 06015G25KT
BECMG 1616/1618 CAVOK
BECMG 1619/1621 04006KT
BECMG 1701/1703 9999 SCT013
PROB40 1701/1709 9999 BKN012
TEMPO 1710/1714 06010KT
ATIS : +41 43 816 2295 (DEP) +41 43 816 2294 (ARR)



MET'MAP, your aeronautical weather chart ! - Copyright ORBIFLY December 2007 - Disclaimer

ORBIFLY MET'MAP TEAM :

Programming & Development : Alexandra Zaïnal
Concept & original design : Baudouin d'Aumeries
Assistance for programming : Marc-Olivier Méhu
Technical & hardware support : Manuel Goepfert

Contact : metmap@orbifly.com




SOURCES & CREDITS :

   NOAA